createdAt,value
2022-09-14T00:01:24.901Z,14.00
2022-09-14T00:03:54.346Z,14.44
2022-09-14T00:06:22.104Z,14.30
2022-09-14T00:08:53.835Z,14.24
2022-09-14T00:11:22.336Z,13.98
2022-09-14T00:13:49.849Z,14.31
2022-09-14T00:16:22.339Z,14.21
2022-09-14T00:18:53.893Z,14.29
2022-09-14T00:21:21.427Z,14.25
2022-09-14T00:23:48.351Z,14.11
2022-09-14T00:26:17.771Z,14.15
2022-09-14T00:28:47.754Z,14.17
2022-09-14T00:31:15.411Z,14.14
2022-09-14T00:33:43.649Z,14.05
2022-09-14T00:36:12.074Z,14.16
2022-09-14T00:38:39.695Z,13.89
2022-09-14T00:41:11.482Z,14.07
2022-09-14T00:44:10.545Z,14.00
2022-09-14T00:46:40.264Z,14.08
2022-09-14T00:49:10.455Z,13.96
2022-09-14T00:51:41.893Z,13.96
2022-09-14T00:54:08.713Z,13.93
2022-09-14T00:56:35.604Z,13.92
2022-09-14T00:59:10.426Z,13.99
2022-09-14T01:01:37.322Z,14.11
2022-09-14T01:04:04.032Z,14.08
2022-09-14T01:06:39.175Z,14.24
2022-09-14T01:09:24.559Z,14.29
2022-09-14T01:12:06.382Z,14.35
2022-09-14T01:14:48.160Z,14.35
2022-09-14T01:17:27.725Z,14.25
2022-09-14T01:20:11.039Z,14.37
2022-09-14T01:22:49.566Z,14.27
2022-09-14T01:25:37.845Z,14.25
2022-09-14T01:28:14.805Z,14.24
2022-09-14T01:30:42.869Z,14.26
2022-09-14T01:33:19.071Z,14.15
2022-09-14T01:35:56.340Z,14.24
2022-09-14T01:38:39.005Z,14.36
2022-09-14T01:41:10.216Z,14.35
2022-09-14T01:43:41.009Z,14.22
2022-09-14T01:46:16.163Z,14.31
2022-09-14T01:49:14.101Z,14.43
2022-09-14T01:51:47.232Z,14.42
2022-09-14T01:54:40.128Z,14.53
2022-09-14T01:57:26.909Z,14.38
2022-09-14T01:59:58.604Z,14.49
2022-09-14T02:02:34.126Z,14.43
2022-09-14T02:05:08.277Z,14.37
2022-09-14T02:07:37.550Z,14.23
2022-09-14T02:10:08.593Z,14.25
2022-09-14T02:12:36.295Z,14.01
2022-09-14T02:15:04.593Z,14.08
2022-09-14T02:17:31.334Z,13.90
2022-09-14T02:20:01.903Z,13.92
2022-09-14T02:22:30.431Z,13.76
2022-09-14T02:24:58.021Z,13.71
2022-09-14T02:27:25.066Z,13.54
2022-09-14T02:29:52.373Z,13.08
2022-09-14T02:32:30.544Z,13.78
2022-09-14T02:35:15.743Z,13.80
2022-09-14T02:38:01.372Z,13.82
2022-09-14T02:40:46.268Z,13.82
2022-09-14T02:43:15.764Z,13.80
2022-09-14T02:46:01.605Z,13.49
2022-09-14T02:49:05.788Z,13.63
2022-09-14T02:51:44.059Z,13.58
2022-09-14T02:54:20.846Z,13.46
2022-09-14T02:56:47.947Z,13.47
2022-09-14T02:59:14.680Z,13.44
2022-09-14T03:01:41.395Z,13.31
2022-09-14T03:04:08.121Z,13.49
2022-09-14T03:06:34.785Z,13.34
2022-09-14T03:09:01.588Z,13.19
2022-09-14T03:11:28.227Z,13.16
2022-09-14T03:13:54.837Z,13.28
2022-09-14T03:16:21.980Z,12.76
2022-09-14T03:18:48.626Z,13.29
2022-09-14T03:21:17.572Z,13.23
2022-09-14T03:23:46.735Z,13.45
2022-09-14T03:26:18.754Z,13.34
2022-09-14T03:28:50.111Z,13.49
2022-09-14T03:31:17.527Z,13.43
2022-09-14T03:33:44.260Z,13.53
2022-09-14T03:36:16.308Z,13.71
2022-09-14T03:38:47.779Z,13.72
2022-09-14T03:41:14.818Z,13.58
2022-09-14T03:43:42.963Z,13.65
2022-09-14T03:46:14.932Z,13.63
2022-09-14T03:48:41.960Z,13.62
2022-09-14T03:51:09.997Z,13.40
2022-09-14T03:53:37.505Z,13.48
2022-09-14T03:56:12.791Z,13.49
2022-09-14T03:58:39.603Z,13.32
2022-09-14T04:01:12.809Z,13.40
2022-09-14T04:03:39.401Z,13.34
2022-09-14T04:06:07.296Z,13.33
2022-09-14T04:08:39.936Z,13.31
2022-09-14T04:11:28.221Z,13.24
2022-09-14T04:13:54.891Z,13.08
2022-09-14T04:16:22.013Z,13.04
2022-09-14T04:18:49.101Z,13.05
2022-09-14T04:21:18.522Z,13.21
2022-09-14T04:24:12.701Z,13.19
2022-09-14T04:26:32.837Z,13.36
2022-09-14T04:28:59.580Z,13.22
2022-09-14T04:31:26.525Z,13.20
2022-09-14T04:33:57.087Z,13.27
2022-09-14T04:36:28.638Z,13.34
2022-09-14T04:38:57.619Z,13.15
2022-09-14T04:41:24.576Z,13.44
2022-09-14T04:43:52.571Z,13.36
2022-09-14T04:46:25.503Z,13.39
2022-09-14T04:48:52.678Z,13.41
2022-09-14T04:51:21.985Z,13.31
2022-09-14T04:53:50.624Z,13.29
2022-09-14T04:56:18.884Z,13.51
2022-09-14T04:58:51.670Z,13.63
2022-09-14T05:01:24.419Z,13.74
2022-09-14T05:03:51.782Z,13.87
2022-09-14T05:06:20.929Z,13.91
2022-09-14T05:08:48.728Z,14.18
2022-09-14T05:11:23.235Z,14.17
2022-09-14T05:13:51.013Z,14.57
2022-09-14T05:16:25.493Z,14.57
2022-09-14T05:18:58.932Z,14.61
2022-09-14T05:21:25.700Z,14.71
2022-09-14T05:24:01.394Z,14.93
2022-09-14T05:26:30.140Z,15.11
2022-09-14T05:28:59.533Z,15.50
2022-09-14T05:31:27.890Z,15.57
2022-09-14T05:33:55.041Z,15.78
2022-09-14T05:36:21.816Z,15.83
2022-09-14T05:38:48.415Z,15.50
2022-09-14T05:41:16.381Z,16.10
2022-09-14T05:43:43.735Z,15.87
2022-09-14T05:46:13.304Z,16.16
2022-09-14T05:48:40.921Z,16.53
2022-09-14T05:51:11.403Z,16.64
2022-09-14T05:53:38.109Z,16.71
2022-09-14T05:56:10.724Z,16.85
2022-09-14T05:58:38.718Z,16.90
2022-09-14T06:01:20.302Z,17.06
2022-09-14T06:03:48.262Z,17.15
2022-09-14T06:06:17.360Z,17.11
2022-09-14T06:08:44.643Z,17.27
2022-09-14T06:11:17.753Z,17.34
2022-09-14T06:13:44.724Z,17.42
2022-09-14T06:16:13.795Z,17.58
2022-09-14T06:18:41.757Z,17.74
2022-09-14T06:21:09.762Z,17.54
2022-09-14T06:23:36.813Z,17.78
2022-09-14T06:26:05.033Z,17.92
2022-09-14T06:28:32.398Z,17.97
2022-09-14T06:30:59.506Z,18.20
2022-09-14T06:33:26.110Z,18.45
2022-09-14T06:36:04.726Z,18.11
2022-09-14T06:38:31.412Z,18.55
2022-09-14T06:41:00.175Z,18.86
2022-09-14T06:43:28.824Z,18.94
2022-09-14T06:45:59.214Z,19.18
2022-09-14T06:48:30.575Z,19.04
2022-09-14T06:50:57.315Z,19.60
2022-09-14T06:53:24.277Z,19.88
2022-09-14T06:55:51.486Z,20.01
2022-09-14T06:58:18.569Z,19.98
2022-09-14T07:00:45.559Z,19.84
2022-09-14T07:03:12.197Z,19.60
2022-09-14T07:05:38.884Z,19.62
2022-09-14T07:08:08.966Z,19.55
2022-09-14T07:10:38.637Z,19.58
2022-09-14T07:13:05.465Z,19.77
2022-09-14T07:15:33.327Z,19.97
2022-09-14T07:17:59.966Z,20.14
2022-09-14T07:20:26.544Z,20.01
2022-09-14T07:22:53.236Z,20.22
2022-09-14T07:25:19.832Z,20.40
2022-09-14T07:27:46.518Z,20.43
2022-09-14T07:30:13.201Z,20.50
2022-09-14T07:32:40.408Z,20.78
2022-09-14T07:35:07.449Z,21.05
2022-09-14T07:37:34.075Z,21.07
2022-09-14T07:40:01.251Z,20.81
2022-09-14T07:42:27.893Z,21.18
2022-09-14T07:44:54.515Z,21.30
2022-09-14T07:47:21.153Z,21.39
2022-09-14T07:49:47.817Z,21.63
2022-09-14T07:52:14.620Z,21.70
2022-09-14T07:54:41.892Z,21.77
2022-09-14T07:57:08.759Z,22.01
2022-09-14T07:59:36.906Z,22.14
2022-09-14T08:02:07.090Z,22.25
2022-09-14T08:04:39.481Z,22.24
2022-09-14T08:07:06.668Z,22.38
2022-09-14T08:09:33.455Z,22.51
2022-09-14T08:12:00.619Z,22.45
2022-09-14T08:14:27.351Z,22.37
2022-09-14T08:16:54.184Z,22.88
2022-09-14T08:19:21.076Z,22.60
2022-09-14T08:21:48.468Z,23.14
2022-09-14T08:24:17.826Z,23.45
2022-09-14T08:26:44.916Z,23.40
2022-09-14T08:29:13.077Z,23.50
2022-09-14T08:31:40.611Z,23.75
2022-09-14T08:34:07.461Z,23.57
2022-09-14T08:36:36.697Z,23.94
2022-09-14T08:39:04.868Z,23.59
2022-09-14T08:41:43.628Z,24.11
2022-09-14T08:44:10.181Z,24.18
2022-09-14T08:46:43.831Z,24.37
2022-09-14T08:49:24.615Z,24.35
2022-09-14T08:51:52.048Z,24.15
2022-09-14T08:54:18.975Z,24.07
2022-09-14T08:56:52.468Z,24.39
2022-09-14T08:59:30.198Z,24.59
2022-09-14T09:01:59.800Z,24.79
2022-09-14T09:04:45.083Z,25.02
2022-09-14T09:07:29.834Z,25.04
2022-09-14T09:09:57.916Z,25.22
2022-09-14T09:12:34.708Z,24.92
2022-09-14T09:15:06.654Z,25.19
2022-09-14T09:17:40.936Z,25.64
2022-09-14T09:20:20.207Z,25.80
2022-09-14T09:22:58.711Z,25.66
2022-09-14T09:25:45.795Z,25.44
2022-09-14T09:28:13.917Z,25.28
2022-09-14T09:30:41.460Z,25.23
2022-09-14T09:33:16.032Z,25.47
2022-09-14T09:35:42.746Z,25.16
2022-09-14T09:38:16.053Z,25.71
2022-09-14T09:40:49.247Z,25.92
2022-09-14T09:43:28.954Z,26.14
2022-09-14T09:46:06.856Z,26.35
2022-09-14T09:48:41.292Z,26.47
2022-09-14T09:51:23.492Z,26.45
2022-09-14T09:53:57.468Z,26.31
2022-09-14T09:56:30.874Z,26.40
2022-09-14T09:58:58.035Z,26.57
2022-09-14T10:01:29.155Z,26.97
2022-09-14T10:04:05.907Z,27.22
2022-09-14T10:06:44.960Z,27.34
2022-09-14T10:09:24.022Z,27.30
2022-09-14T10:12:15.156Z,27.89
2022-09-14T10:14:41.967Z,27.94
2022-09-14T10:17:23.278Z,28.15
2022-09-14T10:19:54.871Z,28.18
2022-09-14T10:22:31.237Z,28.64
2022-09-14T10:24:58.080Z,28.35
2022-09-14T10:27:46.088Z,28.18
2022-09-14T10:30:19.104Z,28.34
2022-09-14T10:32:51.783Z,28.65
2022-09-14T10:35:20.438Z,28.43
2022-09-14T10:37:58.672Z,28.78
2022-09-14T10:40:37.626Z,28.11
2022-09-14T10:43:13.295Z,28.21
2022-09-14T10:45:45.344Z,28.19
2022-09-14T10:48:44.639Z,28.02
2022-09-14T10:51:26.471Z,28.22
2022-09-14T10:54:08.487Z,28.37
2022-09-14T10:57:19.800Z,28.33
2022-09-14T10:59:56.536Z,28.29
2022-09-14T11:02:36.498Z,28.26
2022-09-14T11:05:15.297Z,28.80
2022-09-14T11:07:48.040Z,29.43
2022-09-14T11:10:53.136Z,29.89
2022-09-14T11:13:43.029Z,29.68
2022-09-14T11:16:23.507Z,29.89
2022-09-14T11:19:11.691Z,29.72
2022-09-14T11:21:52.586Z,29.25
2022-09-14T11:24:42.491Z,29.50
2022-09-14T11:27:32.318Z,29.02
2022-09-14T11:30:31.618Z,28.58
2022-09-14T11:33:07.383Z,28.66
2022-09-14T11:35:40.071Z,28.61
2022-09-14T11:38:30.267Z,28.11
2022-09-14T11:41:41.659Z,29.01
2022-09-14T11:44:17.944Z,29.24
2022-09-14T11:47:00.604Z,29.34
2022-09-14T11:49:57.656Z,29.19
2022-09-14T11:52:27.122Z,29.52
2022-09-14T11:54:54.666Z,29.93
2022-09-14T11:57:25.888Z,30.11
2022-09-14T11:59:57.801Z,29.55
2022-09-14T12:02:30.448Z,28.95
2022-09-14T12:05:06.401Z,28.88
2022-09-14T12:07:45.604Z,28.99
2022-09-14T12:10:18.085Z,28.98
2022-09-14T12:12:44.707Z,29.37
2022-09-14T12:15:26.961Z,29.55
2022-09-14T12:18:05.763Z,29.69
2022-09-14T12:20:42.819Z,29.60
2022-09-14T12:23:18.565Z,28.78
2022-09-14T12:26:13.659Z,28.87
2022-09-14T12:28:50.520Z,29.38
2022-09-14T12:31:36.501Z,30.12
2022-09-14T12:34:19.626Z,29.94
2022-09-14T12:36:46.209Z,30.23
2022-09-14T12:39:25.944Z,29.54
2022-09-14T12:41:52.529Z,29.60
2022-09-14T12:44:31.729Z,28.86
2022-09-14T12:46:58.261Z,28.78
2022-09-14T12:49:30.903Z,28.47
2022-09-14T12:52:04.242Z,28.43
2022-09-14T12:54:51.498Z,28.50
2022-09-14T12:57:30.971Z,28.73
2022-09-14T13:00:02.947Z,28.45
2022-09-14T13:02:54.438Z,28.45
2022-09-14T13:05:24.669Z,28.28
2022-09-14T13:07:52.146Z,27.96
2022-09-14T13:10:25.258Z,28.50
2022-09-14T13:12:52.556Z,28.45
2022-09-14T13:15:30.296Z,28.36
2022-09-14T13:18:16.749Z,28.54
2022-09-14T13:20:54.117Z,29.09
2022-09-14T13:23:22.808Z,28.84
2022-09-14T13:25:50.362Z,29.04
2022-09-14T13:28:19.349Z,29.21
2022-09-14T13:31:01.537Z,29.44
2022-09-14T13:33:29.956Z,29.17
2022-09-14T13:36:00.061Z,28.97
2022-09-14T13:38:33.430Z,28.75
2022-09-14T13:41:10.722Z,28.54
2022-09-14T13:43:37.891Z,28.60
2022-09-14T13:46:10.760Z,28.17
2022-09-14T13:48:42.967Z,27.95
2022-09-14T13:51:12.413Z,27.89
2022-09-14T13:53:49.219Z,27.71
2022-09-14T13:56:28.201Z,27.55
2022-09-14T13:59:14.694Z,27.57
2022-09-14T14:01:53.517Z,27.35
2022-09-14T14:04:34.835Z,27.21
2022-09-14T14:07:08.580Z,27.04
2022-09-14T14:09:51.883Z,26.83
2022-09-14T14:12:26.387Z,26.84
2022-09-14T14:14:59.170Z,26.76
2022-09-14T14:17:36.815Z,26.59
2022-09-14T14:20:26.632Z,26.78
2022-09-14T14:23:14.032Z,26.74
2022-09-14T14:25:52.176Z,26.92
2022-09-14T14:28:22.517Z,26.93
2022-09-14T14:30:49.857Z,26.80
2022-09-14T14:33:22.630Z,26.85
2022-09-14T14:35:54.592Z,26.65
2022-09-14T14:38:23.703Z,26.71
2022-09-14T14:40:52.666Z,26.63
2022-09-14T14:43:24.949Z,26.57
2022-09-14T14:45:58.052Z,26.25
2022-09-14T14:48:26.228Z,26.48
2022-09-14T14:50:55.555Z,26.19
2022-09-14T14:53:22.955Z,26.26
2022-09-14T14:55:49.835Z,26.15
2022-09-14T14:58:18.492Z,25.86
2022-09-14T15:00:46.041Z,25.98
2022-09-14T15:03:12.786Z,26.04
2022-09-14T15:05:40.595Z,26.03
2022-09-14T15:08:07.284Z,25.99
2022-09-14T15:10:33.905Z,26.00
2022-09-14T15:13:00.510Z,25.98
2022-09-14T15:15:27.183Z,26.05
2022-09-14T15:17:54.001Z,26.06
2022-09-14T15:20:21.340Z,26.08
2022-09-14T15:22:48.225Z,26.18
2022-09-14T15:25:16.036Z,26.17
2022-09-14T15:27:42.728Z,26.22
2022-09-14T15:30:11.808Z,26.12
2022-09-14T15:32:38.998Z,26.17
2022-09-14T15:35:07.559Z,26.32
2022-09-14T15:37:34.209Z,26.57
2022-09-14T15:40:00.978Z,26.58
2022-09-14T15:42:27.703Z,26.56
2022-09-14T15:44:54.320Z,26.35
2022-09-14T15:47:21.170Z,26.28
2022-09-14T15:49:51.681Z,26.25
2022-09-14T15:52:19.053Z,25.97
2022-09-14T15:54:45.967Z,26.17
2022-09-14T15:57:13.473Z,26.20
2022-09-14T15:59:40.173Z,26.19
2022-09-14T16:02:06.955Z,26.09
2022-09-14T16:04:37.565Z,26.12
2022-09-14T16:07:10.113Z,26.14
2022-09-14T16:09:41.322Z,25.92
2022-09-14T16:12:10.007Z,25.88
2022-09-14T16:14:36.943Z,25.93
2022-09-14T16:17:05.097Z,25.71
2022-09-14T16:19:32.379Z,25.66
2022-09-14T16:21:59.092Z,25.46
2022-09-14T16:24:26.721Z,25.60
2022-09-14T16:26:54.088Z,25.48
2022-09-14T16:29:24.130Z,25.02
2022-09-14T16:31:51.813Z,25.18
2022-09-14T16:34:23.110Z,25.17
2022-09-14T16:36:50.324Z,24.99
2022-09-14T16:39:25.653Z,24.93
2022-09-14T16:41:56.301Z,25.00
2022-09-14T16:44:26.478Z,24.94
2022-09-14T16:46:54.901Z,24.80
2022-09-14T16:49:26.498Z,24.66
2022-09-14T16:51:54.676Z,24.56
2022-09-14T16:54:23.243Z,24.56
2022-09-14T16:56:50.811Z,24.45
2022-09-14T16:59:17.945Z,24.39
2022-09-14T17:01:49.710Z,24.27
2022-09-14T17:04:23.470Z,24.05
2022-09-14T17:06:51.766Z,24.12
2022-09-14T17:09:25.050Z,24.08
2022-09-14T17:11:53.031Z,24.07
2022-09-14T17:14:23.497Z,23.96
2022-09-14T17:16:50.342Z,24.05
2022-09-14T17:19:17.354Z,24.02
2022-09-14T17:21:45.560Z,24.00
2022-09-14T17:24:12.860Z,23.86
2022-09-14T17:26:39.845Z,23.81
2022-09-14T17:29:07.044Z,23.80
2022-09-14T17:31:36.826Z,23.68
2022-09-14T17:34:05.089Z,23.59
2022-09-14T17:36:32.406Z,23.47
2022-09-14T17:39:02.371Z,23.52
2022-09-14T17:41:31.609Z,23.39
2022-09-14T17:44:01.976Z,23.17
2022-09-14T17:46:29.571Z,22.93
2022-09-14T17:49:00.711Z,23.06
2022-09-14T17:51:29.404Z,22.94
2022-09-14T17:53:57.701Z,22.81
2022-09-14T17:56:26.959Z,22.79
2022-09-14T17:59:01.769Z,22.82
2022-09-14T18:01:29.010Z,22.82
2022-09-14T18:03:59.478Z,22.66
2022-09-14T18:06:35.804Z,22.57
2022-09-14T18:09:06.411Z,22.58
2022-09-14T18:11:33.193Z,22.59
2022-09-14T18:14:00.226Z,21.78
2022-09-14T18:16:27.744Z,22.65
2022-09-14T18:18:54.784Z,22.51
2022-09-14T18:21:21.747Z,22.41
2022-09-14T18:23:50.556Z,22.19
2022-09-14T18:26:17.382Z,21.90
2022-09-14T18:28:44.811Z,22.30
2022-09-14T18:31:14.310Z,22.31
2022-09-14T18:33:46.123Z,22.35
2022-09-14T18:36:15.120Z,22.03
2022-09-14T18:38:42.467Z,22.06
2022-09-14T18:41:10.864Z,21.95
2022-09-14T18:43:38.488Z,22.03
2022-09-14T18:46:07.531Z,21.83
2022-09-14T18:48:35.094Z,22.05
2022-09-14T18:51:05.164Z,21.95
2022-09-14T18:53:32.544Z,21.98
2022-09-14T18:56:08.217Z,21.83
2022-09-14T18:58:40.400Z,21.79
2022-09-14T19:01:08.312Z,21.83
2022-09-14T19:03:37.373Z,21.58
2022-09-14T19:06:11.808Z,21.79
2022-09-14T19:08:38.589Z,21.91
2022-09-14T19:11:07.053Z,21.86
2022-09-14T19:13:34.226Z,21.90
2022-09-14T19:16:09.326Z,21.83
2022-09-14T19:18:36.307Z,21.68
2022-09-14T19:21:31.149Z,21.79
2022-09-14T19:24:04.580Z,21.71
2022-09-14T19:26:34.868Z,21.46
2022-09-14T19:29:03.481Z,21.57
2022-09-14T19:31:31.061Z,21.49
2022-09-14T19:33:59.262Z,21.24
2022-09-14T19:36:27.441Z,20.84
2022-09-14T19:38:57.353Z,21.18
2022-09-14T19:41:25.480Z,21.28
2022-09-14T19:43:52.249Z,21.02
2022-09-14T19:46:21.387Z,20.73
2022-09-14T19:48:48.033Z,20.77
2022-09-14T19:51:23.243Z,20.84
2022-09-14T19:53:52.009Z,20.84
2022-09-14T19:56:22.751Z,20.50
2022-09-14T19:58:53.556Z,20.65
2022-09-14T20:01:22.043Z,20.60
2022-09-14T20:03:49.423Z,20.52
2022-09-14T20:06:23.592Z,20.50
2022-09-14T20:08:56.221Z,20.43
2022-09-14T20:11:25.334Z,20.28
2022-09-14T20:13:56.943Z,20.18
2022-09-14T20:16:28.805Z,20.27
2022-09-14T20:18:57.654Z,20.12
2022-09-14T20:21:26.046Z,19.67
2022-09-14T20:24:15.221Z,19.68
2022-09-14T20:26:43.144Z,19.38
2022-09-14T20:29:10.353Z,19.73
2022-09-14T20:31:37.488Z,19.55
2022-09-14T20:34:04.565Z,19.72
2022-09-14T20:36:32.487Z,19.70
2022-09-14T20:38:59.797Z,19.53
2022-09-14T20:41:29.080Z,19.54
2022-09-14T20:43:56.404Z,19.70
2022-09-14T20:46:25.834Z,19.61
2022-09-14T20:48:53.583Z,19.61
2022-09-14T20:51:25.139Z,19.61
2022-09-14T20:53:52.045Z,19.45
2022-09-14T20:56:24.800Z,19.74
2022-09-14T21:02:07.423Z,19.68
2022-09-14T21:04:34.485Z,19.60
2022-09-14T21:09:41.673Z,19.35
2022-09-14T21:12:12.608Z,19.33
2022-09-14T21:14:39.219Z,19.29
2022-09-14T21:17:05.821Z,19.28
2022-09-14T21:19:32.493Z,19.31
2022-09-14T21:21:59.165Z,19.52
2022-09-14T21:24:26.117Z,19.56
2022-09-14T21:26:53.404Z,19.42
2022-09-14T21:29:23.664Z,19.29
2022-09-14T21:31:51.297Z,19.12
2022-09-14T21:34:18.650Z,19.19
2022-09-14T21:36:48.086Z,19.31
2022-09-14T21:39:23.052Z,19.07
2022-09-14T21:41:55.761Z,19.10
2022-09-14T21:44:29.958Z,18.88
2022-09-14T21:46:57.384Z,19.26
2022-09-14T21:49:24.033Z,19.13
2022-09-14T21:51:50.751Z,19.14
2022-09-14T21:54:25.372Z,19.03
2022-09-14T21:56:53.127Z,18.94
2022-09-14T21:59:21.634Z,19.17
2022-09-14T22:01:49.081Z,19.01
2022-09-14T22:04:19.574Z,19.16
2022-09-14T22:06:46.798Z,19.19
2022-09-14T22:09:15.324Z,19.02
2022-09-14T22:11:42.508Z,19.04
2022-09-14T22:14:14.701Z,18.87
2022-09-14T22:16:42.060Z,18.95
2022-09-14T22:19:14.987Z,18.95
2022-09-14T22:21:41.513Z,18.82
2022-09-14T22:24:11.405Z,18.94
2022-09-14T22:26:39.710Z,18.80
2022-09-14T22:29:08.869Z,18.91
2022-09-14T22:31:37.515Z,18.88
2022-09-14T22:34:04.145Z,18.91
2022-09-14T22:36:30.760Z,18.97
2022-09-14T22:38:58.880Z,19.06
2022-09-14T22:41:26.691Z,19.20
2022-09-14T22:43:53.888Z,19.32
2022-09-14T22:46:21.432Z,19.31
2022-09-14T22:48:48.632Z,19.12
2022-09-14T22:51:18.036Z,19.35
2022-09-14T22:53:45.058Z,19.56
2022-09-14T22:56:16.053Z,19.50
2022-09-14T22:58:43.044Z,19.47
2022-09-14T23:01:14.010Z,19.60
2022-09-14T23:03:40.768Z,19.48
2022-09-14T23:06:08.257Z,19.57
2022-09-14T23:08:35.940Z,19.64
2022-09-14T23:11:05.600Z,19.49
2022-09-14T23:13:34.884Z,19.81
2022-09-14T23:16:01.986Z,19.71
2022-09-14T23:18:28.616Z,19.65
2022-09-14T23:20:55.128Z,19.53
2022-09-14T23:23:21.649Z,19.59
2022-09-14T23:25:48.726Z,19.58
2022-09-14T23:28:15.233Z,19.48
2022-09-14T23:30:41.848Z,19.52
2022-09-14T23:33:09.204Z,19.47
2022-09-14T23:35:37.797Z,19.46
2022-09-14T23:38:04.639Z,19.48
2022-09-14T23:40:31.239Z,19.43
2022-09-14T23:42:57.901Z,19.38
2022-09-14T23:45:24.408Z,19.49
2022-09-14T23:47:50.987Z,19.31
2022-09-14T23:50:17.577Z,19.64
2022-09-14T23:52:44.152Z,19.49
2022-09-14T23:55:10.828Z,19.55
2022-09-14T23:57:37.969Z,19.55
